Time;durP1;ratioP1;P1;durP2;ratioP2;P2;SDS_P1;SDS_P2;PMS_P1;PMS_P2;Temp;Humidity;BMP_temperature;BMP_pressure;BME280_temperature;BME280_humidity;BME280_pressure;Samples;Min_cycle;Max_cycle;Signal;HPM_P1;HPM_P2
2022/01/15 00:01:15;;;;;;;147.10;51.80;;;;;;;2.92;100.00;103201.53;5208955;28;20072;-73
2022/01/15 00:03:47;;;;;;;119.27;52.33;;;;;;;2.94;100.00;103196.38;5210667;28;20026;-73
2022/01/15 00:06:18;;;;;;;141.90;51.03;;;;;;;2.96;100.00;103197.25;5207350;28;20097;-73
2022/01/15 00:08:49;;;;;;;116.13;49.50;;;;;;;3.06;100.00;103201.69;5209787;28;20025;-72
2022/01/15 00:11:21;;;;;;;155.13;50.67;;;;;;;2.98;100.00;103208.50;5208638;28;20080;-72
2022/01/15 00:14:20;;;;;;;208.70;50.93;;;;;;;2.92;100.00;103200.66;5210776;28;20563;-74
2022/01/15 00:16:50;;;;;;;128.47;45.80;;;;;;;2.86;100.00;103198.91;5209817;28;20038;-73
2022/01/15 00:19:34;;;;;;;96.97;45.90;;;;;;;3.00;100.00;103199.03;5206853;28;20010;-73
2022/01/15 00:22:05;;;;;;;111.20;46.53;;;;;;;2.73;100.00;103192.69;5204519;28;20064;-73
2022/01/15 00:24:38;;;;;;;93.40;46.30;;;;;;;3.00;100.00;103191.28;5210704;28;20105;-73
2022/01/15 00:27:09;;;;;;;105.83;49.43;;;;;;;2.88;100.00;103185.09;5211691;28;20079;-74
2022/01/15 00:29:40;;;;;;;90.73;47.80;;;;;;;2.99;100.00;103179.16;5210982;28;20606;-73
2022/01/15 00:32:12;;;;;;;96.90;44.27;;;;;;;3.12;100.00;103180.16;5210011;28;20060;-73
2022/01/15 00:34:43;;;;;;;154.47;46.33;;;;;;;2.87;100.00;103175.63;5208326;28;20025;-74
2022/01/15 00:37:14;;;;;;;108.90;48.03;;;;;;;2.77;100.00;103181.53;5207614;28;20028;-73
2022/01/15 00:39:45;;;;;;;171.57;51.00;;;;;;;2.72;100.00;103183.22;5209850;28;20060;-73
2022/01/15 00:42:18;;;;;;;167.13;52.37;;;;;;;2.61;100.00;103171.03;5210048;28;20021;-75
2022/01/15 00:44:50;;;;;;;131.80;46.60;;;;;;;2.61;100.00;103164.97;5206193;28;20677;-74
2022/01/15 00:47:22;;;;;;;156.93;45.67;;;;;;;2.56;100.00;103169.22;5198158;28;20022;-74
2022/01/15 00:49:53;;;;;;;117.80;45.07;;;;;;;2.68;100.00;103176.25;5192204;28;20072;-73
2022/01/15 00:52:24;;;;;;;111.97;42.67;;;;;;;2.60;100.00;103156.31;5191207;28;20521;-74
2022/01/15 00:54:56;;;;;;;112.50;43.90;;;;;;;2.57;100.00;103166.66;5199777;28;20021;-74
2022/01/15 00:57:27;;;;;;;131.53;48.13;;;;;;;2.45;100.00;103162.19;5209621;28;20010;-74
2022/01/15 00:59:58;;;;;;;106.63;45.97;;;;;;;2.46;100.00;103157.91;5191886;28;20026;-74
2022/01/15 01:02:30;;;;;;;138.47;43.07;;;;;;;2.36;100.00;103146.56;5211171;28;20297;-74
2022/01/15 01:05:01;;;;;;;154.60;44.43;;;;;;;2.28;100.00;103144.78;5212240;28;20101;-74
2022/01/15 01:07:32;;;;;;;139.77;44.30;;;;;;;2.25;100.00;103159.38;5199243;28;20135;-74
2022/01/15 01:10:48;;;;;;;124.67;47.43;;;;;;;2.28;100.00;103146.47;5191554;28;20054;-74
2022/01/15 01:23:52;;;;;;;103.53;42.20;;;;;;;2.21;100.00;103132.59;5197318;28;20038;-74
2022/01/15 01:29:05;;;;;;;118.90;45.73;;;;;;;2.13;100.00;103124.75;5191319;28;20108;-74
2022/01/15 01:31:51;;;;;;;125.80;43.63;;;;;;;2.10;100.00;103126.41;5191090;28;20048;-74
2022/01/15 01:34:25;;;;;;;104.07;43.07;;;;;;;2.18;100.00;103133.44;5200218;28;20081;-74
2022/01/15 01:37:11;;;;;;;108.10;43.00;;;;;;;2.04;100.00;103115.16;5203371;28;20026;-73
2022/01/15 01:45:17;;;;;;;118.50;44.78;;;;;;;2.26;100.00;103119.72;5211534;28;20061;-73
2022/01/15 01:47:48;;;;;;;130.93;45.03;;;;;;;2.19;100.00;103121.38;5188614;28;20046;-74
2022/01/15 01:50:25;;;;;;;100.13;43.17;;;;;;;2.22;100.00;103113.66;5199362;28;20030;-74
2022/01/15 01:52:58;;;;;;;97.97;44.17;;;;;;;2.37;100.00;103112.09;5210087;28;20033;-74
2022/01/15 01:55:29;;;;;;;116.70;44.33;;;;;;;2.14;100.00;103098.06;5207867;28;20018;-74
2022/01/15 01:58:01;;;;;;;147.17;45.57;;;;;;;2.15;100.00;103112.72;5190760;28;20052;-74
2022/01/15 02:00:32;;;;;;;134.40;46.43;;;;;;;2.10;100.00;103109.19;5189472;28;20027;-74
2022/01/15 02:03:03;;;;;;;122.60;43.77;;;;;;;2.18;100.00;103111.91;5189132;28;20022;-74
2022/01/15 02:05:35;;;;;;;112.63;42.70;;;;;;;2.10;100.00;103108.31;5192137;28;20022;-73
2022/01/15 02:08:06;;;;;;;109.30;41.07;;;;;;;2.27;100.00;103099.06;5207974;28;20030;-74
2022/01/15 02:10:37;;;;;;;95.47;44.63;;;;;;;2.50;100.00;103097.56;5190558;28;20088;-74
2022/01/15 02:13:10;;;;;;;105.50;41.37;;;;;;;2.53;100.00;103108.81;5192572;28;20072;-74
2022/01/15 02:15:42;;;;;;;126.23;42.53;;;;;;;2.30;100.00;103103.41;5202803;28;20034;-74
2022/01/15 02:18:14;;;;;;;105.43;40.23;;;;;;;2.24;100.00;103101.63;5198714;28;20465;-74
2022/01/15 02:23:35;;;;;;;97.00;40.97;;;;;;;2.20;100.00;103105.00;5192249;28;20477;-74
2022/01/15 02:26:08;;;;;;;109.43;38.73;;;;;;;2.03;100.00;103102.22;5193362;28;20023;-74
2022/01/15 02:28:41;;;;;;;80.70;36.27;;;;;;;2.11;100.00;103104.91;5203885;28;20523;-74
2022/01/15 02:31:15;;;;;;;85.90;35.63;;;;;;;2.13;100.00;103103.22;5190320;28;20026;-74
2022/01/15 02:33:49;;;;;;;80.70;34.93;;;;;;;2.11;100.00;103081.63;5189786;28;20169;-74
2022/01/15 02:36:25;;;;;;;82.72;33.25;;;;;;;2.12;100.00;103089.41;5198437;28;20045;-74
2022/01/15 02:38:57;;;;;;;78.30;30.33;;;;;;;2.17;100.00;103085.16;5190855;28;20732;-74
2022/01/15 02:41:34;;;;;;;87.33;34.20;;;;;;;2.10;100.00;103067.84;5207064;28;20023;-73
2022/01/15 02:44:15;;;;;;;75.63;33.47;;;;;;;2.10;100.00;103049.75;5195230;28;20072;-74
2022/01/15 02:49:21;;;;;;;75.78;32.50;;;;;;;2.14;100.00;103059.28;5210323;28;20061;-71
2022/01/15 02:51:52;;;;;;;73.23;30.07;;;;;;;2.12;100.00;103055.81;5209996;28;20074;-74
2022/01/15 02:54:24;;;;;;;80.70;32.40;;;;;;;2.13;100.00;103042.00;5206904;28;20807;-73
2022/01/15 02:56:55;;;;;;;82.53;31.93;;;;;;;1.99;100.00;103035.84;5198288;28;20034;-74
2022/01/15 02:59:27;;;;;;;77.40;32.07;;;;;;;2.01;100.00;103041.88;5210274;28;20025;-74
2022/01/15 03:01:58;;;;;;;89.07;30.67;;;;;;;1.86;100.00;103025.34;5210795;28;20476;-74
2022/01/15 03:04:29;;;;;;;70.83;29.33;;;;;;;1.86;100.00;103033.09;5206289;28;20035;-74
2022/01/15 03:07:00;;;;;;;76.17;30.53;;;;;;;1.84;100.00;103037.38;5189106;28;20084;-74
2022/01/15 03:09:32;;;;;;;69.73;28.73;;;;;;;1.89;100.00;103030.53;5190005;28;20477;-74
2022/01/15 03:12:03;;;;;;;67.00;27.33;;;;;;;1.92;100.00;103033.16;5190128;28;20042;-74
2022/01/15 03:14:35;;;;;;;69.17;27.60;;;;;;;1.91;100.00;103030.56;5193497;28;20034;-74
2022/01/15 03:17:06;;;;;;;58.50;28.23;;;;;;;1.81;100.00;103019.25;5210805;28;20061;-74
2022/01/15 03:19:37;;;;;;;58.10;27.67;;;;;;;1.87;100.00;103014.13;5208571;28;20404;-74
2022/01/15 03:22:09;;;;;;;69.30;29.20;;;;;;;1.88;100.00;103022.78;5209810;28;20472;-74
2022/01/15 03:24:40;;;;;;;82.07;29.03;;;;;;;1.78;100.00;103021.81;5204014;28;20026;-74
2022/01/15 03:27:11;;;;;;;64.43;29.70;;;;;;;1.83;100.00;103022.72;5189085;28;20225;-74
2022/01/15 03:29:43;;;;;;;68.90;29.57;;;;;;;1.75;100.00;103011.41;5189641;28;20030;-74
2022/01/15 03:32:14;;;;;;;84.67;29.03;;;;;;;1.72;100.00;103014.84;5197556;28;20819;-74
2022/01/15 03:34:46;;;;;;;73.03;27.73;;;;;;;1.80;100.00;103017.50;5193563;28;20444;-73
2022/01/15 03:37:18;;;;;;;76.03;31.37;;;;;;;1.76;100.00;103018.31;5192869;28;20477;-73
2022/01/15 03:39:49;;;;;;;79.07;30.47;;;;;;;1.75;100.00;103020.03;5193531;28;20027;-73
2022/01/15 03:42:21;;;;;;;75.67;30.10;;;;;;;1.66;100.00;103000.13;5198588;28;20508;-74
2022/01/15 03:44:52;;;;;;;80.73;30.83;;;;;;;1.57;100.00;103016.34;5212417;28;20485;-74
2022/01/15 03:47:23;;;;;;;80.00;32.40;;;;;;;1.47;100.00;103004.16;5213688;28;20037;-74
2022/01/15 03:49:54;;;;;;;78.57;32.33;;;;;;;1.53;100.00;103008.56;5212865;28;20026;-73
2022/01/15 03:52:26;;;;;;;67.00;27.70;;;;;;;1.61;100.00;103014.69;5207716;28;20034;-73
2022/01/15 03:54:57;;;;;;;70.57;27.50;;;;;;;1.60;100.00;103005.22;5193399;28;20501;-74
2022/01/15 03:57:28;;;;;;;63.67;30.03;;;;;;;1.45;100.00;102993.81;5193149;28;20524;-74
2022/01/15 04:00:00;;;;;;;70.17;30.57;;;;;;;1.42;100.00;102983.47;5193111;28;20462;-74
2022/01/15 04:02:31;;;;;;;82.70;30.53;;;;;;;1.39;100.00;102991.16;5191266;28;20034;-74
2022/01/15 04:05:03;;;;;;;78.03;31.63;;;;;;;1.45;100.00;102987.78;5212800;28;20435;-74
2022/01/15 04:07:34;;;;;;;90.73;33.10;;;;;;;1.45;100.00;103001.56;5211678;28;20054;-74
2022/01/15 04:10:07;;;;;;;70.60;30.47;;;;;;;1.49;100.00;102992.16;5213639;28;20064;-74
2022/01/15 04:12:39;;;;;;;89.97;34.03;;;;;;;1.49;100.00;102989.56;5209714;28;20045;-74
2022/01/15 04:15:16;;;;;;;82.50;34.40;;;;;;;1.43;100.00;102968.84;5192737;28;20030;-74
2022/01/15 04:17:49;;;;;;;89.03;33.20;;;;;;;1.46;100.00;102981.78;5192588;28;20014;-74
2022/01/15 04:20:23;;;;;;;81.00;32.57;;;;;;;1.51;100.00;102985.28;5191853;28;20436;-74
2022/01/15 04:22:54;;;;;;;80.07;32.03;;;;;;;1.41;100.00;102979.16;5197303;28;20029;-76
2022/01/15 04:25:26;;;;;;;79.43;32.57;;;;;;;1.38;100.00;102968.75;5212454;28;20092;-74
2022/01/15 04:28:00;;;;;;;78.50;33.63;;;;;;;1.36;100.00;102959.28;5194338;28;20461;-73
2022/01/15 04:30:32;;;;;;;87.03;33.70;;;;;;;1.52;100.00;102976.69;5192212;28;20026;-74
2022/01/15 04:33:03;;;;;;;80.33;34.10;;;;;;;1.49;100.00;102970.59;5195484;28;20014;-73
2022/01/15 04:35:34;;;;;;;82.97;36.33;;;;;;;1.37;100.00;102967.03;5205718;28;20041;-74
2022/01/15 04:38:10;;;;;;;81.50;33.43;;;;;;;1.35;100.00;102966.13;5212455;28;20422;-74
2022/01/15 04:40:41;;;;;;;70.03;32.37;;;;;;;1.35;100.00;102960.97;5210902;28;20030;-73
2022/01/15 04:43:12;;;;;;;71.60;31.57;;;;;;;1.34;100.00;102951.50;5212444;28;20040;-73
2022/01/15 04:45:44;;;;;;;79.00;31.47;;;;;;;1.33;100.00;102944.59;5193483;28;20093;-73
2022/01/15 04:48:16;;;;;;;72.73;31.07;;;;;;;1.37;100.00;102951.53;5191326;28;20034;-74
2022/01/15 04:50:47;;;;;;;73.50;33.47;;;;;;;1.37;100.00;102950.66;5190559;28;20062;-73
2022/01/15 04:53:18;;;;;;;71.47;30.00;;;;;;;1.37;100.00;102941.22;5192622;28;20600;-74
2022/01/15 04:55:50;;;;;;;76.13;31.57;;;;;;;1.39;100.00;102938.66;5193740;28;20031;-73
2022/01/15 04:58:23;;;;;;;69.57;30.27;;;;;;;1.38;100.00;102931.75;5191812;28;20033;-73
2022/01/15 05:00:54;;;;;;;77.50;31.67;;;;;;;1.49;100.00;102939.63;5193322;28;20026;-74
2022/01/15 05:03:25;;;;;;;73.50;32.43;;;;;;;1.53;100.00;102931.06;5189769;28;20032;-73
2022/01/15 05:05:56;;;;;;;76.93;30.77;;;;;;;1.49;100.00;102943.06;5191439;28;20439;-74
2022/01/15 05:08:28;;;;;;;73.57;33.03;;;;;;;1.49;100.00;102929.28;5194809;28;20021;-74
2022/01/15 05:11:10;;;;;;;67.77;32.50;;;;;;;1.49;100.00;102931.88;5198455;28;20645;-73
2022/01/15 05:13:42;;;;;;;67.60;32.43;;;;;;;1.44;100.00;102934.41;5208002;28;20042;-73
2022/01/15 05:16:13;;;;;;;75.37;31.57;;;;;;;1.47;100.00;102929.28;5198830;28;20460;-73
2022/01/15 05:18:44;;;;;;;83.27;33.60;;;;;;;1.44;100.00;102924.94;5191571;28;20030;-74
2022/01/15 05:21:15;;;;;;;101.97;36.20;;;;;;;1.38;100.00;102932.59;5190579;28;20033;-74
2022/01/15 05:23:47;;;;;;;74.83;33.97;;;;;;;1.35;100.00;102917.09;5190223;28;20069;-73
2022/01/15 05:26:18;;;;;;;70.23;34.40;;;;;;;1.38;100.00;102913.69;5207342;28;20057;-73
2022/01/15 05:28:49;;;;;;;65.27;31.67;;;;;;;1.42;100.00;102918.91;5212077;28;20477;-73
2022/01/15 05:31:20;;;;;;;71.83;32.40;;;;;;;1.43;100.00;102910.28;5212287;28;20088;-74
2022/01/15 05:33:53;;;;;;;75.30;33.60;;;;;;;1.54;100.00;102901.81;5209677;28;20405;-74
2022/01/15 05:36:24;;;;;;;74.93;32.97;;;;;;;1.46;100.00;102893.97;5200963;28;20056;-74
2022/01/15 05:38:55;;;;;;;66.83;32.47;;;;;;;1.41;100.00;102883.59;5189422;28;20034;-74
2022/01/15 05:41:27;;;;;;;73.10;33.60;;;;;;;1.44;100.00;102881.06;5191330;28;20033;-74
2022/01/15 05:44:01;;;;;;;75.67;34.40;;;;;;;1.37;100.00;102881.81;5190941;28;20035;-74
2022/01/15 05:46:34;;;;;;;85.45;34.20;;;;;;;1.35;100.00;102886.09;5202153;28;20029;-74
2022/01/15 05:49:05;;;;;;;95.87;38.17;;;;;;;1.19;100.00;102885.03;5210312;28;20091;-74
2022/01/15 05:51:36;;;;;;;91.30;35.77;;;;;;;1.19;100.00;102874.72;5208782;28;20038;-74
2022/01/15 05:54:10;;;;;;;90.57;36.07;;;;;;;1.26;100.00;102881.69;5211583;28;20030;-74
2022/01/15 05:56:41;;;;;;;91.13;38.23;;;;;;;1.18;100.00;102868.69;5202994;28;20022;-74
2022/01/15 05:59:13;;;;;;;79.10;35.97;;;;;;;1.26;100.00;102871.34;5210850;28;20029;-74
2022/01/15 06:01:44;;;;;;;82.73;36.87;;;;;;;1.31;100.00;102871.41;5211005;28;20390;-74
2022/01/15 06:04:16;;;;;;;80.70;36.33;;;;;;;1.31;100.00;102866.25;5211331;28;20033;-74
2022/01/15 06:06:47;;;;;;;72.93;34.67;;;;;;;1.41;100.00;102870.69;5189639;28;20030;-73
2022/01/15 06:09:19;;;;;;;102.80;36.63;;;;;;;1.26;100.00;102852.41;5190502;28;20027;-74
2022/01/15 06:11:50;;;;;;;86.67;35.43;;;;;;;1.23;100.00;102865.28;5191264;28;20046;-74
2022/01/15 06:14:22;;;;;;;100.10;36.17;;;;;;;1.14;100.00;102860.88;5194795;28;20050;-74
2022/01/15 06:16:54;;;;;;;108.77;38.13;;;;;;;1.14;100.00;102866.91;5194914;28;20026;-74
2022/01/15 06:19:26;;;;;;;93.67;38.33;;;;;;;1.17;100.00;102866.94;5189997;28;20496;-74
2022/01/15 06:21:58;;;;;;;76.30;34.73;;;;;;;1.31;100.00;102854.22;5190374;28;20464;-73
2022/01/15 06:24:29;;;;;;;90.67;36.23;;;;;;;1.23;100.00;102842.94;5191806;28;20073;-74
2022/01/15 06:27:01;;;;;;;105.77;35.97;;;;;;;1.37;100.00;102857.72;5210871;28;20473;-74
2022/01/15 06:29:32;;;;;;;83.43;31.67;;;;;;;1.35;100.00;102849.06;5207707;28;20031;-73
2022/01/15 06:32:04;;;;;;;79.77;32.87;;;;;;;1.50;100.00;102849.25;5190699;28;20023;-74
2022/01/15 06:34:35;;;;;;;116.80;35.27;;;;;;;1.36;100.00;102851.69;5191474;28;20038;-74
2022/01/15 06:37:06;;;;;;;178.30;34.20;;;;;;;1.29;100.00;102844.72;5209269;28;20061;-72
2022/01/15 06:39:37;;;;;;;109.60;33.37;;;;;;;1.32;100.00;102849.91;5190143;28;20037;-74
2022/01/15 06:42:09;;;;;;;100.80;34.97;;;;;;;1.35;100.00;102855.13;5198073;28;20126;-74
2022/01/15 06:44:40;;;;;;;140.73;36.13;;;;;;;1.29;100.00;102844.72;5210735;28;20037;-73
2022/01/15 06:47:11;;;;;;;131.00;37.33;;;;;;;1.27;100.00;102836.09;5208782;28;20030;-74
2022/01/15 06:49:42;;;;;;;154.17;36.10;;;;;;;1.20;100.00;102835.16;5209567;28;20029;-74
2022/01/15 06:52:14;;;;;;;197.67;37.10;;;;;;;1.22;100.00;102833.47;5191378;28;20045;-73
2022/01/15 06:54:45;;;;;;;119.93;34.37;;;;;;;1.18;100.00;102842.88;5203284;28;20578;-73
2022/01/15 06:57:16;;;;;;;252.13;41.03;;;;;;;1.11;100.00;102841.06;5201263;28;20052;-73
2022/01/15 06:59:48;;;;;;;203.70;37.60;;;;;;;1.17;100.00;102840.28;5194461;28;20117;-73
2022/01/15 07:02:19;;;;;;;133.27;37.90;;;;;;;1.19;100.00;102841.16;5198649;28;20096;-73
2022/01/15 07:04:50;;;;;;;135.00;36.30;;;;;;;1.28;100.00;102843.84;5200890;28;20037;-73
2022/01/15 07:07:21;;;;;;;113.13;35.53;;;;;;;1.27;100.00;102843.84;5195021;28;20069;-74
2022/01/15 07:09:53;;;;;;;135.40;41.87;;;;;;;1.35;100.00;102844.78;5214038;28;20034;-74
2022/01/15 07:12:24;;;;;;;124.50;35.27;;;;;;;1.33;100.00;102846.47;5193703;28;20081;-73
2022/01/15 07:14:56;;;;;;;149.00;36.80;;;;;;;1.31;100.00;102843.00;5206573;28;20026;-73
2022/01/15 07:17:27;;;;;;;88.70;35.17;;;;;;;1.38;100.00;102846.56;5193417;28;20035;-74
2022/01/15 07:19:59;;;;;;;148.63;31.80;;;;;;;1.45;100.00;102840.56;5203397;28;20080;-74
2022/01/15 07:22:30;;;;;;;227.10;31.33;;;;;;;1.25;100.00;102837.78;5193462;28;20377;-74
2022/01/15 07:25:01;;;;;;;67.40;28.47;;;;;;;1.54;100.00;102851.03;5197744;28;20026;-74
2022/01/15 07:27:32;;;;;;;92.67;27.07;;;;;;;1.39;100.00;102838.81;5210908;28;20038;-73
2022/01/15 07:30:05;;;;;;;89.10;26.47;;;;;;;1.42;100.00;102845.72;5214102;28;20036;-74
2022/01/15 07:32:38;;;;;;;70.67;24.27;;;;;;;1.41;100.00;102850.03;5214323;28;20109;-73
2022/01/15 07:35:10;;;;;;;136.33;24.67;;;;;;;1.44;100.00;102847.47;5212759;28;20030;-73
2022/01/15 07:37:42;;;;;;;100.87;25.17;;;;;;;1.55;100.00;102847.56;5212631;28;20396;-74
2022/01/15 07:40:13;;;;;;;157.60;26.37;;;;;;;1.20;100.00;102838.59;5213400;28;20370;-74
2022/01/15 07:42:44;;;;;;;129.67;24.67;;;;;;;1.25;100.00;102842.94;5212774;28;20036;-73
2022/01/15 07:45:17;;;;;;;192.67;25.97;;;;;;;1.01;100.00;102842.69;5213042;28;20018;-73
2022/01/15 07:47:48;;;;;;;105.70;26.17;;;;;;;0.95;100.00;102843.47;5213033;28;20030;-74
2022/01/15 07:50:24;;;;;;;228.27;25.70;;;;;;;0.80;100.00;102851.00;5212808;28;20018;-73
2022/01/15 07:52:57;;;;;;;232.73;25.47;;;;;;;0.89;100.00;102856.25;5213023;28;20022;-73
2022/01/15 07:55:28;;;;;;;170.03;25.23;;;;;;;1.04;100.00;102857.31;5212347;28;20521;-74
2022/01/15 07:57:59;;;;;;;298.17;27.27;;;;;;;0.78;100.00;102868.16;5213589;28;20155;-73
2022/01/15 08:00:31;;;;;;;134.87;24.70;;;;;;;0.67;100.00;102866.28;5212882;28;20022;-73
2022/01/15 08:03:02;;;;;;;152.07;24.37;;;;;;;0.68;100.00;102868.00;5213338;28;20022;-74
2022/01/15 08:05:34;;;;;;;129.43;22.60;;;;;;;0.78;100.00;102863.00;5210355;28;20018;-74
2022/01/15 08:08:05;;;;;;;184.17;24.23;;;;;;;0.59;100.00;102862.75;5213344;28;20030;-74
2022/01/15 08:10:36;;;;;;;188.13;24.83;;;;;;;0.54;100.00;102854.91;5213152;28;20030;-73
2022/01/15 08:13:08;;;;;;;170.13;23.73;;;;;;;0.57;100.00;102859.25;5212451;28;20057;-74
2022/01/15 08:15:39;;;;;;;84.07;24.10;;;;;;;0.69;100.00;102858.56;5212899;28;20049;-74
2022/01/15 08:18:11;;;;;;;67.73;22.87;;;;;;;0.83;100.00;102845.88;5212643;28;20037;-74
2022/01/15 08:20:42;;;;;;;113.97;23.73;;;;;;;0.79;100.00;102849.25;5209546;28;20014;-74
2022/01/15 08:23:13;;;;;;;97.10;22.40;;;;;;;0.95;100.00;102852.91;5211431;28;20480;-73
2022/01/15 08:25:45;;;;;;;77.50;22.80;;;;;;;0.80;100.00;102841.53;5211492;28;20072;-73
2022/01/15 08:28:17;;;;;;;155.53;25.03;;;;;;;0.62;100.00;102837.00;5213109;28;20442;-73
2022/01/15 08:30:49;;;;;;;134.97;26.10;;;;;;;0.68;100.00;102843.94;5212413;28;20034;-73
2022/01/15 08:33:20;;;;;;;119.87;24.07;;;;;;;0.68;100.00;102841.38;5212614;28;20515;-73
2022/01/15 08:35:52;;;;;;;155.97;26.00;;;;;;;0.63;100.00;102838.72;5210695;28;20034;-73
2022/01/15 08:38:23;;;;;;;121.30;25.93;;;;;;;0.72;100.00;102833.69;5212458;28;20025;-73
2022/01/15 08:40:54;;;;;;;141.30;27.93;;;;;;;0.62;100.00;102842.16;5203657;28;20030;-73
2022/01/15 08:43:26;;;;;;;83.37;25.73;;;;;;;0.69;100.00;102828.50;5204757;28;20517;-73
2022/01/15 08:45:57;;;;;;;72.60;28.23;;;;;;;0.86;100.00;102840.75;5205990;28;20026;-73
2022/01/15 08:48:28;;;;;;;62.50;26.50;;;;;;;0.98;100.00;102841.78;5202187;28;20072;-74
2022/01/15 08:50:59;;;;;;;88.17;26.80;;;;;;;1.06;100.00;102832.41;5201634;28;20038;-74
2022/01/15 08:53:31;;;;;;;60.67;26.07;;;;;;;0.93;100.00;102836.53;5198622;28;20030;-74
2022/01/15 08:56:03;;;;;;;76.27;26.10;;;;;;;0.94;100.00;102835.69;5192981;28;20034;-74
2022/01/15 08:58:35;;;;;;;88.37;27.53;;;;;;;0.78;100.00;102835.50;5200138;28;20033;-74
2022/01/15 09:01:13;;;;;;;81.57;24.80;;;;;;;0.84;100.00;102843.31;5196739;28;20499;-74
2022/01/15 09:03:44;;;;;;;66.23;27.10;;;;;;;0.87;100.00;102836.47;5208133;28;20689;-75
2022/01/15 09:06:16;;;;;;;96.47;27.13;;;;;;;0.79;100.00;102839.78;5209644;28;20064;-76
2022/01/15 09:08:47;;;;;;;56.23;26.07;;;;;;;0.77;100.00;102840.63;5211652;28;20485;-77
2022/01/15 09:11:19;;;;;;;53.10;26.90;;;;;;;0.79;100.00;102833.75;5210904;28;20029;-76
2022/01/15 09:13:50;;;;;;;67.07;30.17;;;;;;;0.70;100.00;102835.38;5210710;28;20175;-73
2022/01/15 09:16:21;;;;;;;74.97;30.67;;;;;;;0.66;100.00;102823.31;5211642;28;20026;-74
2022/01/15 09:18:53;;;;;;;80.30;30.47;;;;;;;0.57;100.00;102824.03;5198605;28;20017;-73
2022/01/15 09:21:24;;;;;;;85.77;30.30;;;;;;;0.61;100.00;102832.69;5211544;28;20037;-71
2022/01/15 09:23:56;;;;;;;76.27;30.67;;;;;;;0.72;100.00;102828.53;5201395;28;20033;-71
2022/01/15 09:32:08;;;;;;;53.13;28.07;;;;;;;1.04;100.00;102809.16;5206502;28;20507;-76
2022/01/15 09:34:40;;;;;;;78.13;32.57;;;;;;;0.83;100.00;102797.72;5192276;28;20034;-79
2022/01/15 09:37:12;;;;;;;55.37;28.97;;;;;;;0.83;100.00;102809.75;5197148;28;20030;-79
2022/01/15 09:39:43;;;;;;;75.87;32.93;;;;;;;0.54;100.00;102787.03;5193889;28;20065;-75
2022/01/15 09:42:15;;;;;;;73.27;31.63;;;;;;;0.71;100.00;102802.72;5194880;28;20032;-74
2022/01/15 09:44:48;;;;;;;76.40;33.03;;;;;;;0.75;100.00;102801.06;5199799;28;20030;-73
2022/01/15 09:47:21;;;;;;;81.20;33.50;;;;;;;0.70;100.00;102799.25;5201578;28;20026;-74
2022/01/15 09:49:54;;;;;;;91.93;34.37;;;;;;;0.68;100.00;102806.09;5189601;28;20098;-74
2022/01/15 09:52:25;;;;;;;90.87;34.60;;;;;;;0.66;100.00;102807.81;5189648;28;20019;-74
2022/01/15 09:54:56;;;;;;;88.47;35.27;;;;;;;0.60;100.00;102818.03;5193949;28;20030;-74
2022/01/15 09:57:27;;;;;;;86.43;34.80;;;;;;;0.66;100.00;102815.56;5214824;28;20057;-74
2022/01/15 10:00:02;;;;;;;80.60;35.97;;;;;;;0.60;100.00;102806.03;5212553;28;20101;-74
2022/01/15 10:02:34;;;;;;;100.03;35.20;;;;;;;0.54;100.00;102810.22;5210710;28;20018;-74
2022/01/15 10:05:05;;;;;;;97.90;34.07;;;;;;;0.54;100.00;102812.81;5209638;28;20057;-74
2022/01/15 10:07:37;;;;;;;94.70;37.63;;;;;;;0.59;100.00;102800.84;5210483;28;20061;-73
2022/01/15 10:10:13;;;;;;;81.47;36.23;;;;;;;0.66;100.00;102809.53;5210614;28;20033;-73
2022/01/15 10:12:44;;;;;;;90.63;37.50;;;;;;;0.70;100.00;102812.16;5209342;28;20045;-74
2022/01/15 10:15:17;;;;;;;95.97;37.17;;;;;;;0.89;100.00;102798.66;5205617;28;20766;-76
2022/01/15 10:17:48;;;;;;;106.23;39.10;;;;;;;0.84;100.00;102808.88;5206186;28;20056;-74
2022/01/15 10:20:23;;;;;;;77.70;36.30;;;;;;;1.10;100.00;102807.50;5209788;28;20014;-73
2022/01/15 10:22:56;;;;;;;;;;;;;;;1.15;100.00;102805.84;5210641;28;20034;-74
2022/01/15 10:25:28;;;;;;;80.67;35.67;;;;;;;1.10;100.00;102810.94;5209256;28;19915;-77
2022/01/15 10:27:59;;;;;;;100.70;39.80;;;;;;;0.99;100.00;102797.03;5210823;28;20484;-76
2022/01/15 10:30:31;;;;;;;120.43;36.67;;;;;;;0.88;100.00;102791.75;5209914;28;20026;-77
2022/01/15 10:33:03;;;;;;;93.40;36.07;;;;;;;0.93;100.00;102801.28;5193120;28;20030;-76
2022/01/15 10:35:36;;;;;;;96.77;37.40;;;;;;;0.95;100.00;102788.41;5187548;28;20026;-73
2022/01/15 10:38:14;;;;;;;96.13;37.20;;;;;;;0.93;100.00;102796.13;5206017;28;20034;-74
2022/01/15 10:40:50;;;;;;;114.03;38.70;;;;;;;0.97;100.00;102784.13;5206079;28;20038;-73
2022/01/15 10:43:33;;;;;;;101.90;38.07;;;;;;;1.03;100.00;102789.34;5197323;28;20034;-73
2022/01/15 10:46:04;;;;;;;90.87;39.40;;;;;;;0.91;100.00;102778.91;5202992;28;20033;-74
2022/01/15 10:48:38;;;;;;;86.00;38.90;;;;;;;0.99;100.00;102778.97;5210796;28;20034;-74
2022/01/15 10:51:10;;;;;;;99.93;38.33;;;;;;;1.08;100.00;102798.00;5212794;28;20030;-72
2022/01/15 10:53:47;;;;;;;89.03;37.00;;;;;;;1.25;100.00;102793.91;5206709;28;20030;-73
2022/01/15 10:56:18;;;;;;;82.77;37.03;;;;;;;1.27;100.00;102784.47;5205038;28;20034;-72
2022/01/15 10:59:06;;;;;;;86.80;35.27;;;;;;;1.20;100.00;102786.09;5210353;28;20385;-74
2022/01/15 11:01:38;;;;;;;107.10;36.63;;;;;;;1.08;100.00;102773.94;5213637;28;20018;-74
2022/01/15 11:04:11;;;;;;;81.80;33.10;;;;;;;1.08;100.00;102771.34;5200004;28;20030;-73
2022/01/15 11:06:43;;;;;;;99.77;36.23;;;;;;;1.11;100.00;102776.53;5207681;28;20121;-75
2022/01/15 11:09:14;;;;;;;110.37;35.43;;;;;;;0.98;100.00;102766.94;5191929;28;20109;-74
2022/01/15 11:11:55;;;;;;;98.97;34.30;;;;;;;1.03;100.00;102760.13;5200913;28;20030;-74
2022/01/15 11:14:27;;;;;;;100.10;36.13;;;;;;;0.99;100.00;102766.06;5202243;28;20057;-74
2022/01/15 11:16:59;;;;;;;100.10;40.90;;;;;;;1.01;100.00;102762.69;5202480;28;20033;-74
2022/01/15 11:19:32;;;;;;;88.47;37.40;;;;;;;1.06;100.00;102760.16;5200711;28;20481;-74
2022/01/15 11:22:04;;;;;;;89.17;34.30;;;;;;;1.15;100.00;102752.47;5201902;28;20108;-73
2022/01/15 11:24:36;;;;;;;84.13;38.10;;;;;;;1.14;100.00;102763.66;5201824;28;20484;-75
2022/01/15 11:27:09;;;;;;;87.77;36.87;;;;;;;1.07;100.00;102752.41;5201465;28;20059;-86
2022/01/15 11:29:43;;;;;;;77.97;35.13;;;;;;;1.09;100.00;102744.69;5203459;28;20571;-73
2022/01/15 11:32:17;;;;;;;81.63;37.20;;;;;;;1.37;100.00;102759.59;5202047;28;20034;-74
2022/01/15 11:35:05;;;;;;;76.43;37.90;;;;;;;1.51;100.00;102739.06;5202571;28;20641;-79
2022/01/15 11:37:52;;;;;;;70.87;34.03;;;;;;;1.51;100.00;102731.31;5203335;28;20045;-76
2022/01/15 11:40:43;;;;;;;64.50;31.33;;;;;;;1.70;100.00;102745.25;5202710;28;20030;-77
2022/01/15 11:43:33;;;;;;;62.20;34.63;;;;;;;1.74;100.00;102744.44;5201366;28;20491;-74
2022/01/15 11:46:22;;;;;;;58.60;31.43;;;;;;;1.59;100.00;102729.66;5203458;28;20845;-76
2022/01/15 11:49:26;;;;;;;85.60;32.47;;;;;;;1.39;100.00;102738.13;5199501;28;20088;-78
2022/01/15 11:52:06;;;;;;;63.03;32.67;;;;;;;1.32;100.00;102728.56;5200726;28;20048;-75
2022/01/15 11:54:39;;;;;;;62.27;31.97;;;;;;;1.26;100.00;102724.22;5202158;28;20049;-74
2022/01/15 11:57:34;;;;;;;63.47;33.40;;;;;;;1.26;100.00;102698.41;5200063;28;20129;-74
2022/01/15 12:00:18;;;;;;;64.50;31.58;;;;;;;1.31;100.00;102717.38;5202051;28;20071;-73
2022/01/15 12:03:01;;;;;;;59.17;31.23;;;;;;;1.39;100.00;102717.47;5202424;28;20030;-70